sensor_id;sensor_type;location;lat;lon;timestamp;pressure;altitude;pressure_sealevel;temperature;humidity
64872;BME280;51351;51.450;6.614;2023-07-13T00:00:42;101272.53;;;17.84;100.00
64872;BME280;51351;51.450;6.614;2023-07-13T00:03:08;101279.16;;;17.82;100.00
64872;BME280;51351;51.450;6.614;2023-07-13T00:05:35;101281.16;;;17.80;100.00
64872;BME280;51351;51.450;6.614;2023-07-13T00:08:01;101273.59;;;17.74;100.00
64872;BME280;51351;51.450;6.614;2023-07-13T00:10:27;101273.88;;;17.71;100.00
64872;BME280;51351;51.450;6.614;2023-07-13T00:12:53;101271.13;;;17.71;100.00
64872;BME280;51351;51.450;6.614;2023-07-13T00:15:23;101281.22;;;17.70;100.00
64872;BME280;51351;51.450;6.614;2023-07-13T00:17:54;101283.22;;;17.68;100.00
64872;BME280;51351;51.450;6.614;2023-07-13T00:20:22;101278.63;;;17.69;100.00
64872;BME280;51351;51.450;6.614;2023-07-13T00:22:49;101274.19;;;17.68;100.00
64872;BME280;51351;51.450;6.614;2023-07-13T00:25:22;101278.22;;;17.64;100.00
64872;BME280;51351;51.450;6.614;2023-07-13T00:27:51;101279.22;;;17.63;100.00
64872;BME280;51351;51.450;6.614;2023-07-13T00:30:18;101282.09;;;17.61;100.00
64872;BME280;51351;51.450;6.614;2023-07-13T00:32:46;101270.63;;;17.58;100.00
64872;BME280;51351;51.450;6.614;2023-07-13T00:35:14;101273.50;;;17.56;100.00
64872;BME280;51351;51.450;6.614;2023-07-13T00:37:41;101279.09;;;17.55;100.00
64872;BME280;51351;51.450;6.614;2023-07-13T00:40:10;101281.25;;;17.51;100.00
64872;BME280;51351;51.450;6.614;2023-07-13T00:42:37;101287.84;;;17.49;100.00
64872;BME280;51351;51.450;6.614;2023-07-13T00:47:39;101281.97;;;17.44;100.00
64872;BME280;51351;51.450;6.614;2023-07-13T00:50:08;101277.50;;;17.43;100.00
64872;BME280;51351;51.450;6.614;2023-07-13T00:52:36;101279.53;;;17.41;100.00
64872;BME280;51351;51.450;6.614;2023-07-13T00:55:04;101288.72;;;17.40;100.00
64872;BME280;51351;51.450;6.614;2023-07-13T00:57:30;101282.72;;;17.36;100.00
64872;BME280;51351;51.450;6.614;2023-07-13T00:59:59;101285.72;;;17.33;100.00
64872;BME280;51351;51.450;6.614;2023-07-13T01:02:33;101282.44;;;17.30;100.00
64872;BME280;51351;51.450;6.614;2023-07-13T01:04:59;101278.00;;;17.29;100.00
64872;BME280;51351;51.450;6.614;2023-07-13T01:07:27;101284.59;;;17.26;100.00
64872;BME280;51351;51.450;6.614;2023-07-13T01:09:56;101279.44;;;17.23;100.00
64872;BME280;51351;51.450;6.614;2023-07-13T01:12:23;101287.03;;;17.20;100.00
64872;BME280;51351;51.450;6.614;2023-07-13T01:14:59;101285.34;;;17.19;100.00
64872;BME280;51351;51.450;6.614;2023-07-13T01:17:27;101283.03;;;17.14;100.00
64872;BME280;51351;51.450;6.614;2023-07-13T01:19:54;101285.91;;;17.13;100.00
64872;BME280;51351;51.450;6.614;2023-07-13T01:22:23;101287.94;;;17.10;100.00
64872;BME280;51351;51.450;6.614;2023-07-13T01:24:53;101282.31;;;17.12;100.00
64872;BME280;51351;51.450;6.614;2023-07-13T01:27:22;101278.47;;;17.15;100.00
64872;BME280;51351;51.450;6.614;2023-07-13T01:29:52;101283.19;;;17.13;100.00
64872;BME280;51351;51.450;6.614;2023-07-13T01:32:22;101285.03;;;17.12;100.00
64872;BME280;51351;51.450;6.614;2023-07-13T01:34:51;101274.41;;;17.09;100.00
64872;BME280;51351;51.450;6.614;2023-07-13T01:37:20;101284.50;;;17.08;100.00
64872;BME280;51351;51.450;6.614;2023-07-13T01:39:47;101283.63;;;17.08;100.00
64872;BME280;51351;51.450;6.614;2023-07-13T01:42:13;101285.78;;;17.04;100.00
64872;BME280;51351;51.450;6.614;2023-07-13T01:44:40;101284.34;;;17.00;100.00
64872;BME280;51351;51.450;6.614;2023-07-13T01:47:07;101285.50;;;16.98;100.00
64872;BME280;51351;51.450;6.614;2023-07-13T01:49:34;101285.63;;;16.96;100.00
64872;BME280;51351;51.450;6.614;2023-07-13T01:52:00;101286.06;;;16.92;100.00
64872;BME280;51351;51.450;6.614;2023-07-13T01:54:26;101290.78;;;16.90;100.00
64872;BME280;51351;51.450;6.614;2023-07-13T01:56:53;101280.16;;;16.87;100.00
64872;BME280;51351;51.450;6.614;2023-07-13T01:59:19;101280.16;;;16.87;100.00
64872;BME280;51351;51.450;6.614;2023-07-13T02:01:45;101285.91;;;16.84;100.00
64872;BME280;51351;51.450;6.614;2023-07-13T02:04:11;101284.19;;;16.83;100.00
64872;BME280;51351;51.450;6.614;2023-07-13T02:06:40;101300.53;;;16.83;100.00
64872;BME280;51351;51.450;6.614;2023-07-13T02:09:06;101291.63;;;16.81;100.00
64872;BME280;51351;51.450;6.614;2023-07-13T02:11:33;101301.09;;;16.77;100.00
64872;BME280;51351;51.450;6.614;2023-07-13T02:14:02;101301.09;;;16.77;100.00
64872;BME280;51351;51.450;6.614;2023-07-13T02:16:29;101298.81;;;16.72;100.00
64872;BME280;51351;51.450;6.614;2023-07-13T02:18:56;101297.25;;;16.70;100.00
64872;BME280;51351;51.450;6.614;2023-07-13T02:21:22;101293.22;;;16.64;100.00
64872;BME280;51351;51.450;6.614;2023-07-13T02:23:51;101287.94;;;16.63;100.00
64872;BME280;51351;51.450;6.614;2023-07-13T02:26:18;101291.06;;;16.58;100.00
64872;BME280;51351;51.450;6.614;2023-07-13T02:28:45;101297.66;;;16.56;100.00
64872;BME280;51351;51.450;6.614;2023-07-13T02:31:14;101304.22;;;16.53;100.00
64872;BME280;51351;51.450;6.614;2023-07-13T02:33:40;101310.53;;;16.54;100.00
64872;BME280;51351;51.450;6.614;2023-07-13T02:36:07;101300.78;;;16.51;100.00
64872;BME280;51351;51.450;6.614;2023-07-13T02:38:34;101301.97;;;16.49;100.00
64872;BME280;51351;51.450;6.614;2023-07-13T02:41:06;101303.78;;;16.48;100.00
64872;BME280;51351;51.450;6.614;2023-07-13T02:43:33;101302.19;;;16.46;100.00
64872;BME280;51351;51.450;6.614;2023-07-13T02:45:59;101311.38;;;16.45;100.00
64872;BME280;51351;51.450;6.614;2023-07-13T02:48:37;101308.66;;;16.45;100.00
64872;BME280;51351;51.450;6.614;2023-07-13T02:51:03;101310.66;;;16.43;100.00
64872;BME280;51351;51.450;6.614;2023-07-13T02:53:29;101303.75;;;16.39;100.00
64872;BME280;51351;51.450;6.614;2023-07-13T02:55:55;101306.75;;;16.36;100.00
64872;BME280;51351;51.450;6.614;2023-07-13T02:58:22;101312.19;;;16.36;100.00
64872;BME280;51351;51.450;6.614;2023-07-13T03:00:48;101313.94;;;16.37;100.00
64872;BME280;51351;51.450;6.614;2023-07-13T03:03:17;101314.19;;;16.34;100.00
64872;BME280;51351;51.450;6.614;2023-07-13T03:05:44;101316.19;;;16.32;100.00
64872;BME280;51351;51.450;6.614;2023-07-13T03:08:16;101320.78;;;16.31;100.00
64872;BME280;51351;51.450;6.614;2023-07-13T03:10:44;101321.63;;;16.32;100.00
64872;BME280;51351;51.450;6.614;2023-07-13T03:13:10;101322.78;;;16.29;100.00
64872;BME280;51351;51.450;6.614;2023-07-13T03:15:37;101321.94;;;16.28;100.00
64872;BME280;51351;51.450;6.614;2023-07-13T03:18:03;101318.19;;;16.29;100.00
64872;BME280;51351;51.450;6.614;2023-07-13T03:20:33;101324.66;;;16.28;100.00
64872;BME280;51351;51.450;6.614;2023-07-13T03:22:59;101329.06;;;16.29;100.00
64872;BME280;51351;51.450;6.614;2023-07-13T03:25:26;101330.22;;;16.27;100.00
64872;BME280;51351;51.450;6.614;2023-07-13T03:27:53;101333.22;;;16.24;100.00
64872;BME280;51351;51.450;6.614;2023-07-13T03:30:20;101330.91;;;16.19;100.00
64872;BME280;51351;51.450;6.614;2023-07-13T03:32:46;101327.47;;;16.17;100.00
64872;BME280;51351;51.450;6.614;2023-07-13T03:35:13;101336.50;;;16.18;100.00
64872;BME280;51351;51.450;6.614;2023-07-13T03:37:39;101331.94;;;16.18;100.00
64872;BME280;51351;51.450;6.614;2023-07-13T03:40:10;101335.78;;;16.16;100.00
64872;BME280;51351;51.450;6.614;2023-07-13T03:42:36;101340.91;;;16.19;100.00
64872;BME280;51351;51.450;6.614;2023-07-13T03:45:03;101341.53;;;16.22;100.00
64872;BME280;51351;51.450;6.614;2023-07-13T03:47:31;101343.69;;;16.28;100.00
64872;BME280;51351;51.450;6.614;2023-07-13T03:49:57;101345.16;;;16.33;100.00
64872;BME280;51351;51.450;6.614;2023-07-13T03:52:23;101345.88;;;16.35;100.00
64872;BME280;51351;51.450;6.614;2023-07-13T03:54:49;101349.56;;;16.34;100.00
64872;BME280;51351;51.450;6.614;2023-07-13T03:57:16;101347.72;;;16.34;100.00
64872;BME280;51351;51.450;6.614;2023-07-13T03:59:42;101345.16;;;16.33;100.00
64872;BME280;51351;51.450;6.614;2023-07-13T04:02:09;101346.84;;;16.34;100.00
64872;BME280;51351;51.450;6.614;2023-07-13T04:04:35;101348.59;;;16.35;100.00
64872;BME280;51351;51.450;6.614;2023-07-13T04:07:01;101354.03;;;16.35;100.00
64872;BME280;51351;51.450;6.614;2023-07-13T04:09:27;101351.31;;;16.35;100.00
64872;BME280;51351;51.450;6.614;2023-07-13T04:11:53;101355.03;;;16.34;100.00
64872;BME280;51351;51.450;6.614;2023-07-13T04:14:19;101360.47;;;16.34;100.00
64872;BME280;51351;51.450;6.614;2023-07-13T04:16:46;101362.94;;;16.37;100.00
64872;BME280;51351;51.450;6.614;2023-07-13T04:19:13;101375.25;;;16.41;100.00
64872;BME280;51351;51.450;6.614;2023-07-13T04:21:39;101372.38;;;16.42;100.00
64872;BME280;51351;51.450;6.614;2023-07-13T04:24:05;101363.94;;;16.45;100.00
64872;BME280;51351;51.450;6.614;2023-07-13T04:26:34;101377.16;;;16.50;100.00
64872;BME280;51351;51.450;6.614;2023-07-13T04:29:02;101370.44;;;16.54;100.00
64872;BME280;51351;51.450;6.614;2023-07-13T04:31:30;101373.00;;;16.55;100.00
64872;BME280;51351;51.450;6.614;2023-07-13T04:33:56;101380.78;;;16.60;100.00
64872;BME280;51351;51.450;6.614;2023-07-13T04:36:24;101383.34;;;16.61;100.00
64872;BME280;51351;51.450;6.614;2023-07-13T04:38:53;101374.19;;;16.62;100.00
64872;BME280;51351;51.450;6.614;2023-07-13T04:41:20;101382.94;;;16.66;100.00
64872;BME280;51351;51.450;6.614;2023-07-13T04:43:47;101370.34;;;16.74;100.00
64872;BME280;51351;51.450;6.614;2023-07-13T04:46:16;101379.97;;;16.78;100.00
64872;BME280;51351;51.450;6.614;2023-07-13T04:48:43;101382.53;;;16.80;100.00
64872;BME280;51351;51.450;6.614;2023-07-13T04:51:10;101371.22;;;16.84;100.00
64872;BME280;51351;51.450;6.614;2023-07-13T04:53:36;101370.50;;;16.92;100.00
64872;BME280;51351;51.450;6.614;2023-07-13T04:56:03;101376.53;;;16.95;100.00
64872;BME280;51351;51.450;6.614;2023-07-13T04:58:30;101379.09;;;16.97;100.00
64872;BME280;51351;51.450;6.614;2023-07-13T05:01:03;101372.09;;;17.04;100.00
64872;BME280;51351;51.450;6.614;2023-07-13T05:03:30;101374.25;;;17.10;100.00
64872;BME280;51351;51.450;6.614;2023-07-13T05:06:02;101378.69;;;17.11;100.00
64872;BME280;51351;51.450;6.614;2023-07-13T05:08:28;101378.84;;;17.19;100.00
64872;BME280;51351;51.450;6.614;2023-07-13T05:10:54;101378.97;;;17.27;100.00
64872;BME280;51351;51.450;6.614;2023-07-13T05:13:21;101363.78;;;17.34;100.00
64872;BME280;51351;51.450;6.614;2023-07-13T05:15:54;101381.00;;;17.35;100.00
64872;BME280;51351;51.450;6.614;2023-07-13T05:18:21;101379.56;;;17.40;100.00
64872;BME280;51351;51.450;6.614;2023-07-13T05:20:47;101381.56;;;17.48;100.00
64872;BME280;51351;51.450;6.614;2023-07-13T05:23:20;101378.56;;;17.51;100.00
64872;BME280;51351;51.450;6.614;2023-07-13T05:25:46;101386.03;;;17.58;100.00
64872;BME280;51351;51.450;6.614;2023-07-13T05:28:12;101383.72;;;17.63;100.00
64872;BME280;51351;51.450;6.614;2023-07-13T05:30:38;101394.34;;;17.66;100.00
64872;BME280;51351;51.450;6.614;2023-07-13T05:33:04;101391.31;;;17.69;100.00
64872;BME280;51351;51.450;6.614;2023-07-13T05:35:30;101391.31;;;17.69;100.00
64872;BME280;51351;51.450;6.614;2023-07-13T05:37:56;101405.09;;;17.77;100.00
64872;BME280;51351;51.450;6.614;2023-07-13T05:40:22;101398.16;;;17.83;100.00
64872;BME280;51351;51.450;6.614;2023-07-13T05:42:48;101402.03;;;17.90;100.00
64872;BME280;51351;51.450;6.614;2023-07-13T05:45:14;101398.00;;;17.94;100.00
64872;BME280;51351;51.450;6.614;2023-07-13T05:47:40;101402.16;;;17.98;100.00
64872;BME280;51351;51.450;6.614;2023-07-13T05:50:06;101398.38;;;18.09;100.00
64872;BME280;51351;51.450;6.614;2023-07-13T05:52:32;101403.66;;;18.20;100.00
64872;BME280;51351;51.450;6.614;2023-07-13T05:54:58;101407.78;;;18.33;100.00
64872;BME280;51351;51.450;6.614;2023-07-13T05:57:24;101420.66;;;18.41;100.00
64872;BME280;51351;51.450;6.614;2023-07-13T05:59:50;101412.63;;;18.49;100.00
64872;BME280;51351;51.450;6.614;2023-07-13T06:02:16;101419.94;;;18.58;100.00
64872;BME280;51351;51.450;6.614;2023-07-13T06:04:42;101421.06;;;18.55;100.00
64872;BME280;51351;51.450;6.614;2023-07-13T06:07:08;101429.00;;;18.58;100.00
64872;BME280;51351;51.450;6.614;2023-07-13T06:09:34;101428.22;;;18.66;100.00
64872;BME280;51351;51.450;6.614;2023-07-13T06:12:00;101437.53;;;18.73;100.00
64872;BME280;51351;51.450;6.614;2023-07-13T06:14:27;101434.72;;;18.83;100.00
64872;BME280;51351;51.450;6.614;2023-07-13T06:16:53;101443.13;;;18.99;100.00
64872;BME280;51351;51.450;6.614;2023-07-13T06:19:19;101433.56;;;19.12;100.00
64872;BME280;51351;51.450;6.614;2023-07-13T06:21:45;101435.59;;;19.28;100.00
64872;BME280;51351;51.450;6.614;2023-07-13T06:24:11;101430.44;;;19.42;100.00
64872;BME280;51351;51.450;6.614;2023-07-13T06:26:37;101436.94;;;19.59;100.00
64872;BME280;51351;51.450;6.614;2023-07-13T06:29:03;101433.78;;;19.72;100.00
64872;BME280;51351;51.450;6.614;2023-07-13T06:31:29;101437.66;;;19.87;100.00
64872;BME280;51351;51.450;6.614;2023-07-13T06:33:55;101444.19;;;19.86;100.00
64872;BME280;51351;51.450;6.614;2023-07-13T06:36:21;101448.03;;;19.57;100.00
64872;BME280;51351;51.450;6.614;2023-07-13T06:38:47;101450.31;;;19.62;100.00
64872;BME280;51351;51.450;6.614;2023-07-13T06:41:13;101459.69;;;19.59;100.00
64872;BME280;51351;51.450;6.614;2023-07-13T06:43:39;101459.84;;;19.58;100.00
64872;BME280;51351;51.450;6.614;2023-07-13T06:46:06;101462.03;;;19.54;100.00
64872;BME280;51351;51.450;6.614;2023-07-13T06:48:32;101458.66;;;19.43;100.00
64872;BME280;51351;51.450;6.614;2023-07-13T06:50:58;101469.09;;;19.12;100.00
64872;BME280;51351;51.450;6.614;2023-07-13T06:53:24;101464.63;;;19.11;100.00
64872;BME280;51351;51.450;6.614;2023-07-13T06:55:50;101473.63;;;19.21;100.00
64872;BME280;51351;51.450;6.614;2023-07-13T06:58:18;101474.03;;;19.26;100.00
64872;BME280;51351;51.450;6.614;2023-07-13T07:00:44;101483.75;;;19.38;100.00
64872;BME280;51351;51.450;6.614;2023-07-13T07:03:10;101478.22;;;19.66;100.00
64872;BME280;51351;51.450;6.614;2023-07-13T07:05:36;101476.69;;;19.89;100.00
64872;BME280;51351;51.450;6.614;2023-07-13T07:08:02;101480.00;;;19.92;100.00
64872;BME280;51351;51.450;6.614;2023-07-13T07:10:29;101480.13;;;19.91;100.00
64872;BME280;51351;51.450;6.614;2023-07-13T07:12:56;101476.84;;;19.87;100.00
64872;BME280;51351;51.450;6.614;2023-07-13T07:15:22;101471.69;;;20.02;100.00
64872;BME280;51351;51.450;6.614;2023-07-13T07:17:48;101490.16;;;20.00;100.00
64872;BME280;51351;51.450;6.614;2023-07-13T07:20:14;101483.69;;;20.09;100.00
64872;BME280;51351;51.450;6.614;2023-07-13T07:22:40;101484.72;;;20.08;100.00
64872;BME280;51351;51.450;6.614;2023-07-13T07:25:07;101484.66;;;20.00;100.00
64872;BME280;51351;51.450;6.614;2023-07-13T07:27:33;101493.72;;;20.18;100.00
64872;BME280;51351;51.450;6.614;2023-07-13T07:29:59;101490.72;;;20.29;100.00
64872;BME280;51351;51.450;6.614;2023-07-13T07:32:29;101490.72;;;20.29;100.00
64872;BME280;51351;51.450;6.614;2023-07-13T07:34:55;101495.66;;;20.25;100.00
64872;BME280;51351;51.450;6.614;2023-07-13T07:37:21;101500.75;;;20.20;100.00
64872;BME280;51351;51.450;6.614;2023-07-13T07:39:47;101490.03;;;20.27;100.00
64872;BME280;51351;51.450;6.614;2023-07-13T07:42:13;101489.59;;;20.39;100.00
64872;BME280;51351;51.450;6.614;2023-07-13T07:44:40;101487.09;;;20.46;100.00
64872;BME280;51351;51.450;6.614;2023-07-13T07:47:07;101482.44;;;20.46;100.00
64872;BME280;51351;51.450;6.614;2023-07-13T07:49:34;101489.88;;;20.62;100.00
64872;BME280;51351;51.450;6.614;2023-07-13T07:52:00;101483.78;;;20.76;100.00
64872;BME280;51351;51.450;6.614;2023-07-13T07:54:26;101489.66;;;20.81;100.00
64872;BME280;51351;51.450;6.614;2023-07-13T07:56:53;101486.97;;;20.89;100.00
64872;BME280;51351;51.450;6.614;2023-07-13T07:59:19;101492.09;;;20.92;100.00
64872;BME280;51351;51.450;6.614;2023-07-13T08:01:45;101490.03;;;20.94;100.00
64872;BME280;51351;51.450;6.614;2023-07-13T08:04:13;101486.00;;;21.06;100.00
64872;BME280;51351;51.450;6.614;2023-07-13T08:06:42;101494.66;;;21.27;100.00
64872;BME280;51351;51.450;6.614;2023-07-13T08:09:08;101482.53;;;21.54;100.00
64872;BME280;51351;51.450;6.614;2023-07-13T08:11:34;101477.47;;;21.91;100.00
64872;BME280;51351;51.450;6.614;2023-07-13T08:14:00;101479.34;;;21.99;100.00
64872;BME280;51351;51.450;6.614;2023-07-13T08:16:26;101474.72;;;22.07;100.00
64872;BME280;51351;51.450;6.614;2023-07-13T08:18:55;101477.09;;;22.19;100.00
64872;BME280;51351;51.450;6.614;2023-07-13T08:21:21;101478.25;;;22.32;100.00
64872;BME280;51351;51.450;6.614;2023-07-13T08:23:47;101479.78;;;22.43;100.00
64872;BME280;51351;51.450;6.614;2023-07-13T08:26:13;101476.91;;;22.20;100.00
64872;BME280;51351;51.450;6.614;2023-07-13T08:28:42;101482.94;;;22.24;100.00
64872;BME280;51351;51.450;6.614;2023-07-13T08:31:09;101487.88;;;22.28;100.00
64872;BME280;51351;51.450;6.614;2023-07-13T08:33:36;101487.88;;;22.28;100.00
64872;BME280;51351;51.450;6.614;2023-07-13T08:36:07;101482.06;;;22.31;100.00
64872;BME280;51351;51.450;6.614;2023-07-13T08:38:33;101473.28;;;22.36;100.00
64872;BME280;51351;51.450;6.614;2023-07-13T08:40:59;101474.72;;;22.78;100.00
64872;BME280;51351;51.450;6.614;2023-07-13T08:43:32;101467.47;;;23.55;100.00
64872;BME280;51351;51.450;6.614;2023-07-13T08:46:08;101467.47;;;23.77;100.00
64872;BME280;51351;51.450;6.614;2023-07-13T08:48:41;101470.47;;;24.28;100.00
64872;BME280;51351;51.450;6.614;2023-07-13T08:51:49;101469.06;;;24.46;100.00
64872;BME280;51351;51.450;6.614;2023-07-13T08:54:33;101466.31;;;24.46;100.00
64872;BME280;51351;51.450;6.614;2023-07-13T08:57:15;101456.13;;;24.32;100.00
64872;BME280;51351;51.450;6.614;2023-07-13T08:59:41;101465.53;;;24.38;100.00
64872;BME280;51351;51.450;6.614;2023-07-13T09:05:01;101476.72;;;24.07;100.00
64872;BME280;51351;51.450;6.614;2023-07-13T09:10:19;101466.69;;;23.69;100.00
64872;BME280;51351;51.450;6.614;2023-07-13T09:13:06;101469.00;;;23.57;100.00
64872;BME280;51351;51.450;6.614;2023-07-13T09:15:42;101469.31;;;24.00;100.00
64872;BME280;51351;51.450;6.614;2023-07-13T09:18:28;101471.59;;;24.19;100.00
64872;BME280;51351;51.450;6.614;2023-07-13T09:23:28;101484.47;;;24.70;100.00
64872;BME280;51351;51.450;6.614;2023-07-13T09:26:03;101484.91;;;24.15;100.00
64872;BME280;51351;51.450;6.614;2023-07-13T09:28:37;101484.75;;;23.71;100.00
64872;BME280;51351;51.450;6.614;2023-07-13T09:31:05;101484.44;;;23.36;100.00
64872;BME280;51351;51.450;6.614;2023-07-13T09:33:32;101488.72;;;23.38;100.00
64872;BME280;51351;51.450;6.614;2023-07-13T09:35:58;101486.00;;;23.30;100.00
64872;BME280;51351;51.450;6.614;2023-07-13T09:38:27;101480.81;;;23.43;100.00
64872;BME280;51351;51.450;6.614;2023-07-13T09:44:12;101472.91;;;23.63;100.00
64872;BME280;51351;51.450;6.614;2023-07-13T09:46:46;101481.66;;;24.12;100.00
64872;BME280;51351;51.450;6.614;2023-07-13T09:49:13;101478.13;;;24.55;100.00
64872;BME280;51351;51.450;6.614;2023-07-13T09:51:42;101483.03;;;24.59;100.00
64872;BME280;51351;51.450;6.614;2023-07-13T09:54:21;101484.16;;;24.36;100.00
64872;BME280;51351;51.450;6.614;2023-07-13T09:56:47;101486.13;;;24.13;100.00
64872;BME280;51351;51.450;6.614;2023-07-13T09:59:21;101479.88;;;23.96;100.00
64872;BME280;51351;51.450;6.614;2023-07-13T10:01:50;101484.13;;;24.07;100.00
64872;BME280;51351;51.450;6.614;2023-07-13T10:04:27;101474.47;;;24.40;100.00
64872;BME280;51351;51.450;6.614;2023-07-13T10:07:08;101479.97;;;24.77;100.00
64872;BME280;51351;51.450;6.614;2023-07-13T10:09:35;101483.63;;;24.55;100.00
64872;BME280;51351;51.450;6.614;2023-07-13T10:12:01;101487.00;;;24.28;100.00
64872;BME280;51351;51.450;6.614;2023-07-13T10:14:28;101487.75;;;23.54;100.00
64872;BME280;51351;51.450;6.614;2023-07-13T10:17:02;101472.09;;;24.22;100.00
64872;BME280;51351;51.450;6.614;2023-07-13T10:19:31;101484.56;;;24.47;100.00
64872;BME280;51351;51.450;6.614;2023-07-13T10:22:14;101481.59;;;24.34;100.00
64872;BME280;51351;51.450;6.614;2023-07-13T10:24:49;101475.94;;;24.80;100.00
64872;BME280;51351;51.450;6.614;2023-07-13T10:32:46;101481.09;;;24.83;100.00
64872;BME280;51351;51.450;6.614;2023-07-13T10:35:15;101475.84;;;25.02;100.00
64872;BME280;51351;51.450;6.614;2023-07-13T10:38:01;101480.69;;;25.15;100.00
64872;BME280;51351;51.450;6.614;2023-07-13T10:40:37;101490.34;;;25.40;100.00
64872;BME280;51351;51.450;6.614;2023-07-13T10:43:13;101480.47;;;25.67;100.00
64872;BME280;51351;51.450;6.614;2023-07-13T10:45:45;101474.94;;;25.67;100.00
64872;BME280;51351;51.450;6.614;2023-07-13T10:48:13;101488.28;;;25.84;100.00
64872;BME280;51351;51.450;6.614;2023-07-13T10:50:45;101480.09;;;25.97;100.00
64872;BME280;51351;51.450;6.614;2023-07-13T10:53:41;101485.63;;;25.97;100.00
64872;BME280;51351;51.450;6.614;2023-07-13T10:58:42;101503.81;;;25.85;100.00
64872;BME280;51351;51.450;6.614;2023-07-13T11:01:11;101504.91;;;25.34;100.00
64872;BME280;51351;51.450;6.614;2023-07-13T11:03:47;101496.06;;;25.38;100.00
64872;BME280;51351;51.450;6.614;2023-07-13T11:06:36;101493.59;;;25.29;100.00
64872;BME280;51351;51.450;6.614;2023-07-13T11:09:36;101490.72;;;25.01;100.00
64872;BME280;51351;51.450;6.614;2023-07-13T11:12:07;101483.94;;;25.39;100.00
64872;BME280;51351;51.450;6.614;2023-07-13T11:22:47;101477.91;;;25.86;100.00
64872;BME280;51351;51.450;6.614;2023-07-13T11:27:49;101471.03;;;26.52;100.00
64872;BME280;51351;51.450;6.614;2023-07-13T11:30:23;101463.94;;;26.71;98.62
64872;BME280;51351;51.450;6.614;2023-07-13T11:33:01;101465.66;;;26.44;98.75
64872;BME280;51351;51.450;6.614;2023-07-13T11:35:34;101470.03;;;26.32;96.79
64872;BME280;51351;51.450;6.614;2023-07-13T11:38:02;101472.16;;;25.88;98.59
64872;BME280;51351;51.450;6.614;2023-07-13T11:40:29;101485.53;;;25.63;99.56
64872;BME280;51351;51.450;6.614;2023-07-13T11:43:06;101472.75;;;25.83;100.00
64872;BME280;51351;51.450;6.614;2023-07-13T11:45:33;101466.47;;;26.10;100.00
64872;BME280;51351;51.450;6.614;2023-07-13T11:47:59;101456.94;;;26.19;98.04
64872;BME280;51351;51.450;6.614;2023-07-13T11:50:27;101465.31;;;26.26;99.65
64872;BME280;51351;51.450;6.614;2023-07-13T11:52:54;101470.25;;;26.65;98.48
64872;BME280;51351;51.450;6.614;2023-07-13T11:55:22;101460.50;;;26.69;97.67
64872;BME280;51351;51.450;6.614;2023-07-13T11:58:00;101457.38;;;26.78;96.48
64872;BME280;51351;51.450;6.614;2023-07-13T12:00:33;101464.56;;;26.45;98.72
64872;BME280;51351;51.450;6.614;2023-07-13T12:03:00;101462.31;;;26.27;96.92
64872;BME280;51351;51.450;6.614;2023-07-13T12:05:28;101462.22;;;26.14;96.47
64872;BME280;51351;51.450;6.614;2023-07-13T12:07:57;101461.63;;;25.98;95.50
64872;BME280;51351;51.450;6.614;2023-07-13T12:13:03;101450.19;;;26.56;95.81
64872;BME280;51351;51.450;6.614;2023-07-13T12:15:43;101449.97;;;26.23;95.51
64872;BME280;51351;51.450;6.614;2023-07-13T12:20:45;101464.88;;;25.59;98.22
64872;BME280;51351;51.450;6.614;2023-07-13T12:25:52;101460.31;;;24.57;100.00
64872;BME280;51351;51.450;6.614;2023-07-13T12:28:35;101468.50;;;24.51;100.00
64872;BME280;51351;51.450;6.614;2023-07-13T12:31:06;101479.44;;;24.44;100.00
64872;BME280;51351;51.450;6.614;2023-07-13T12:33:33;101478.06;;;24.26;100.00
64872;BME280;51351;51.450;6.614;2023-07-13T12:36:04;101475.38;;;24.03;100.00
64872;BME280;51351;51.450;6.614;2023-07-13T12:38:34;101483.22;;;23.83;100.00
64872;BME280;51351;51.450;6.614;2023-07-13T12:41:04;101490.28;;;23.86;100.00
64872;BME280;51351;51.450;6.614;2023-07-13T12:43:36;101495.72;;;23.49;100.00
64872;BME280;51351;51.450;6.614;2023-07-13T12:46:18;101507.75;;;23.17;100.00
64872;BME280;51351;51.450;6.614;2023-07-13T12:48:49;101502.00;;;22.88;100.00
64872;BME280;51351;51.450;6.614;2023-07-13T12:51:15;101502.72;;;22.82;100.00
64872;BME280;51351;51.450;6.614;2023-07-13T12:53:48;101496.81;;;23.01;100.00
64872;BME280;51351;51.450;6.614;2023-07-13T12:56:22;101508.03;;;23.61;100.00
64872;BME280;51351;51.450;6.614;2023-07-13T12:58:49;101499.97;;;24.05;100.00
64872;BME280;51351;51.450;6.614;2023-07-13T13:01:23;101499.13;;;24.56;100.00
64872;BME280;51351;51.450;6.614;2023-07-13T13:03:53;101495.47;;;24.93;100.00
64872;BME280;51351;51.450;6.614;2023-07-13T13:06:28;101500.44;;;25.33;100.00
64872;BME280;51351;51.450;6.614;2023-07-13T13:08:56;101492.03;;;25.56;100.00
64872;BME280;51351;51.450;6.614;2023-07-13T13:11:26;101490.25;;;25.48;100.00
64872;BME280;51351;51.450;6.614;2023-07-13T13:13:53;101483.47;;;25.36;100.00
64872;BME280;51351;51.450;6.614;2023-07-13T13:18:55;101488.00;;;25.79;100.00
64872;BME280;51351;51.450;6.614;2023-07-13T13:21:23;101486.13;;;26.22;100.00
64872;BME280;51351;51.450;6.614;2023-07-13T13:23:50;101473.06;;;26.37;98.96
64872;BME280;51351;51.450;6.614;2023-07-13T13:26:18;101483.75;;;25.98;96.76
64872;BME280;51351;51.450;6.614;2023-07-13T13:28:45;101486.72;;;25.75;99.07
64872;BME280;51351;51.450;6.614;2023-07-13T13:31:13;101484.09;;;26.09;100.00